DucheSS Of Scandinavia — OUZI2 — position and weather

sailwx.info

Track history (hours):
 
Tides and Currents Weather Stations Pressure Air Temp Water Temp Dewpoint Dewpoint Depression Visibility Wind Speed Wind Dir Waves Ship Positions

DucheSS Of Scandinavia

Operator: DFDS A/S

Last reported at 2019-Feb-16 04:00 UTC. Time now 2019-Feb-16 04:20 UTC.
Position N 59°06' E 010°14'.

Length 134 m; draft 5.4 m.

Type: Passenger vessel. MMSI: 219002929.

Date/timePositionNaut miles runAvg speedWind from/ knotsBaromVisibWave heightAir tempDewpointWater temp
2019-Feb-16 04:00N 59°06' E 010°14'0 0.0
2019-Feb-16 03:30N 59°06' E 010°14'0 0.0
2019-Feb-16 03:00N 59°06' E 010°14'0 0.0
2019-Feb-16 02:28N 59°06' E 010°14'0 0.0
2019-Feb-16 01:58N 59°06' E 010°14'0 0.0
2019-Feb-16 01:28N 59°06' E 010°14'0 0.0
2019-Feb-16 00:59N 59°06' E 010°14'0 0.0
2019-Feb-16 00:29N 59°06' E 010°14'0 0.0
2019-Feb-15 23:59N 59°06' E 010°14'0 0.0
2019-Feb-15 23:30N 59°06' E 010°14'0 0.0
2019-Feb-15 23:00N 59°06' E 010°14'0 0.0
2019-Feb-15 22:30N 59°06' E 010°14'0 0.0
2019-Feb-15 21:58N 59°06' E 010°14'0 0.0
2019-Feb-15 21:28N 59°06' E 010°14'0 0.0
2019-Feb-15 20:58N 59°06' E 010°14'1 2.4
2019-Feb-15 20:30N 59°07' E 010°14'0 0.6
2019-Feb-15 20:00N 59°08' E 010°14'611.9
2019-Feb-15 19:31N 59°02' E 010°16'816.2
2019-Feb-15 19:00N 59°00' E 010°31'714.2
2019-Feb-15 18:31N 59°02' E 010°45'714.4
2019-Feb-15 18:01N 59°00' E 010°58'714.1
2019-Feb-15 17:30N 58°56' E 011°09'0 1.0
2019-Feb-15 17:01N 58°56' E 011°10'4 8.9
2019-Feb-15 16:31N 58°58' E 011°02'714.7
2019-Feb-15 16:01N 59°01' E 010°50'714.9
2019-Feb-15 15:30N 59°01' E 010°35'815.2
2019-Feb-15 15:00N 59°01' E 010°21'612.4
2019-Feb-15 14:31N 59°06' E 010°14'1 2.7
2019-Feb-15 14:00N 59°08' E 010°14'0 0.5
2019-Feb-15 13:30N 59°07' E 010°14'612.0
2019-Feb-15 13:01N 59°02' E 010°17'714.3
2019-Feb-15 12:31N 59°00' E 010°31'714.3
2019-Feb-15 12:00N 59°02' E 010°44'714.0
2019-Feb-15 11:31N 58°60' E 010°58'714.3
2019-Feb-15 11:01N 58°56' E 011°09'1 1.3
2019-Feb-15 10:30N 58°56' E 011°10'0 0.2
2019-Feb-15 10:00N 58°56' E 011°10'713.9
2019-Feb-15 09:30N 58°60' E 010°59'815.7
2019-Feb-15 09:00N 59°02' E 010°44'816.2
2019-Feb-15 08:30N 59°01' E 010°28'714.5
2019-Feb-15 08:01N 59°03' E 010°15'5 9.0
2019-Feb-15 07:30N 59°08' E 010°14'0 0.0
2019-Feb-15 07:01N 59°08' E 010°14'1 2.9
2019-Feb-15 06:31N 59°06' E 010°14'0 0.0
2019-Feb-15 05:59N 59°06' E 010°14'0 0.0
2019-Feb-15 05:29N 59°06' E 010°14'0 0.0
2019-Feb-15 04:59N 59°06' E 010°14'0 0.0
2019-Feb-15 04:30N 59°06' E 010°14'0 0.0
2019-Feb-15 04:00N 59°06' E 010°14'0 0.0
2019-Feb-15 03:30N 59°06' E 010°14'0 0.0
2019-Feb-15 02:58N 59°06' E 010°14'0 0.0
2019-Feb-15 02:28N 59°06' E 010°14'0 0.0
2019-Feb-15 01:58N 59°06' E 010°14'0 0.0
2019-Feb-15 01:29N 59°06' E 010°14'0 0.0
2019-Feb-15 00:59N 59°06' E 010°14'0 0.0
2019-Feb-15 00:29N 59°06' E 010°14'0 0.0
2019-Feb-15 00:00N 59°06' E 010°14'0 0.0
2019-Feb-14 23:30N 59°06' E 010°14'0 0.0
2019-Feb-14 23:00N 59°06' E 010°14'0 0.0
2019-Feb-14 22:28N 59°06' E 010°14'0 0.0
2019-Feb-14 21:58N 59°06' E 010°14'0 0.0
2019-Feb-14 21:28N 59°06' E 010°14'0 0.0
2019-Feb-14 21:00N 59°06' E 010°14'1 2.6
2019-Feb-14 20:31N 59°07' E 010°14'1 1.1
2019-Feb-14 20:00N 59°07' E 010°14'612.3
2019-Feb-14 19:30N 59°01' E 010°19'815.6
2019-Feb-14 19:00N 59°01' E 010°34'713.8
2019-Feb-14 18:31N 59°02' E 010°47'714.2
2019-Feb-14 18:01N 58°59' E 011°00'612.0
2019-Feb-14 17:30N 58°56' E 011°10'0 0.4
2019-Feb-14 17:00N 58°56' E 011°10'5 9.1
2019-Feb-14 16:30N 58°58' E 011°02'815.8
2019-Feb-14 16:00N 59°02' E 010°49'815.4
2019-Feb-14 15:30N 59°01' E 010°34'815.4
2019-Feb-14 15:00N 59°01' E 010°19'612.7
2019-Feb-14 14:30N 59°07' E 010°14'1 1.5
2019-Feb-14 14:01N 59°08' E 010°14'0 0.6
2019-Feb-14 13:30N 59°07' E 010°14'611.9
2019-Feb-14 13:01N 59°02' E 010°17'713.9
2019-Feb-14 12:31N 59°01' E 010°30'714.1
2019-Feb-14 12:01N 59°01' E 010°44'713.9
2019-Feb-14 11:31N 59°00' E 010°57'714.3
2019-Feb-14 11:01N 58°56' E 011°08'1 2.0
2019-Feb-14 10:31N 58°56' E 011°10'0 0.0
2019-Feb-14 10:00N 58°56' E 011°10'612.1
2019-Feb-14 09:31N 58°59' E 011°00'815.2
2019-Feb-14 09:01N 59°02' E 010°46'815.4
2019-Feb-14 08:31N 59°00' E 010°32'815.0
2019-Feb-14 08:01N 59°01' E 010°17'612.2
2019-Feb-14 07:30N 59°07' E 010°14'0 0.5
2019-Feb-14 07:01N 59°08' E 010°14'1 2.8
2019-Feb-14 06:30N 59°06' E 010°14'0 0.0
2019-Feb-14 05:59N 59°06' E 010°14'0 0.0
2019-Feb-14 05:30N 59°06' E 010°14'0 0.0
2019-Feb-14 05:00N 59°06' E 010°14'0 0.0
2019-Feb-14 04:30N 59°06' E 010°14'0 0.0
2019-Feb-14 03:58N 59°06' E 010°14'0 0.0
2019-Feb-14 02:58N 59°06' E 010°14'0 0.0
2019-Feb-14 02:29N 59°06' E 010°14'0 0.0
2019-Feb-14 01:59N 59°06' E 010°14'0 0.0
2019-Feb-14 01:29N 59°06' E 010°14'0 0.0
2019-Feb-14 01:00N 59°06' E 010°14'0 0.0
2019-Feb-14 00:30N 59°06' E 010°14'0 0.0
2019-Feb-14 00:00N 59°06' E 010°14'0 0.0
2019-Feb-13 23:28N 59°06' E 010°14'0 0.0
2019-Feb-13 22:58N 59°06' E 010°14'0 0.0
2019-Feb-13 22:28N 59°06' E 010°14'0 0.0
2019-Feb-13 21:59N 59°06' E 010°14'0 0.0
2019-Feb-13 21:29N 59°06' E 010°14'0 0.0
2019-Feb-13 20:59N 59°06' E 010°14'0 0.2
2019-Feb-13 20:31N 59°06' E 010°14'1 2.6
2019-Feb-13 20:01N 59°08' E 010°14'510.6
2019-Feb-13 19:30N 59°02' E 010°15'714.9
2019-Feb-13 19:01N 59°00' E 010°29'815.3
2019-Feb-13 18:30N 59°02' E 010°44'714.9
2019-Feb-13 18:01N 59°00' E 010°58'714.3
2019-Feb-13 17:30N 58°56' E 011°09'0 0.7
2019-Feb-13 17:01N 58°56' E 011°10'4 7.5
2019-Feb-13 16:30N 58°57' E 011°03'815.9
2019-Feb-13 16:01N 59°01' E 010°50'815.6
2019-Feb-13 15:31N 59°01' E 010°35'815.2
2019-Feb-13 15:00N 59°01' E 010°20'712.9
2019-Feb-13 14:30N 59°07' E 010°14'1 2.0
2019-Feb-13 14:00N 59°08' E 010°14'0 0.8
2019-Feb-13 13:30N 59°07' E 010°14'612.1
2019-Feb-13 13:00N 59°02' E 010°18'714.6
2019-Feb-13 12:31N 59°01' E 010°32'714.4
2019-Feb-13 12:00N 59°02' E 010°46'714.3
2019-Feb-13 11:30N 58°60' E 010°59'713.1
2019-Feb-13 11:00N 58°56' E 011°09'1 1.1
2019-Feb-13 10:31N 58°56' E 011°10'0 0.3
2019-Feb-13 10:00N 58°56' E 011°10'612.8
2019-Feb-13 09:31N 58°59' E 010°60'714.8
2019-Feb-13 09:01N 59°02' E 010°46'714.8
2019-Feb-13 08:30N 59°00' E 010°32'714.6
2019-Feb-13 08:01N 59°01' E 010°18'612.3
2019-Feb-13 07:30N 59°07' E 010°14'0 0.6
2019-Feb-13 07:01N 59°08' E 010°14'1 2.9
2019-Feb-13 06:30N 59°06' E 010°14'0 0.0
2019-Feb-13 05:58N 59°06' E 010°14'0 0.0
2019-Feb-13 05:29N 59°06' E 010°14'0 0.0
2019-Feb-13 04:59N 59°06' E 010°14'0 0.0
2019-Feb-13 04:29N 59°06' E 010°14'0 0.0
2019-Feb-13 04:00N 59°06' E 010°14'0 0.0
2019-Feb-13 03:30N 59°06' E 010°14'0 0.0
2019-Feb-13 03:00N 59°06' E 010°14'0 0.0
2019-Feb-13 02:28N 59°06' E 010°14'0 0.0
2019-Feb-13 01:58N 59°06' E 010°14'0 0.0
2019-Feb-13 01:28N 59°06' E 010°14'0 0.0
2019-Feb-13 00:59N 59°06' E 010°14'0 0.0
2019-Feb-13 00:29N 59°06' E 010°14'0 0.0
2019-Feb-12 23:59N 59°06' E 010°14'0 0.0
2019-Feb-12 23:30N 59°06' E 010°14'0 0.0
2019-Feb-12 23:00N 59°06' E 010°14'0 0.0
2019-Feb-12 22:30N 59°06' E 010°14'0 0.0
2019-Feb-12 21:58N 59°06' E 010°14'0 0.0
2019-Feb-12 21:28N 59°06' E 010°14'0 0.0
2019-Feb-12 20:58N 59°06' E 010°14'1 2.3
2019-Feb-12 20:30N 59°07' E 010°14'0 0.7
2019-Feb-12 20:00N 59°08' E 010°14'611.3
2019-Feb-12 19:31N 59°02' E 010°16'815.0
2019-Feb-12 19:01N 58°60' E 010°30'815.3
2019-Feb-12 18:31N 59°02' E 010°44'815.1
2019-Feb-12 18:01N 58°60' E 010°58'713.8
2019-Feb-12 17:30N 58°56' E 011°09'1 1.1
2019-Feb-12 17:01N 58°56' E 011°10'4 8.7
2019-Feb-12 16:31N 58°58' E 011°03'815.2
2019-Feb-12 16:01N 59°01' E 010°50'714.9
2019-Feb-12 15:31N 59°01' E 010°35'815.0
2019-Feb-12 15:01N 59°01' E 010°21'613.0
2019-Feb-12 14:30N 59°06' E 010°14'1 2.3
2019-Feb-12 14:01N 59°08' E 010°14'0 0.8
2019-Feb-12 13:30N 59°07' E 010°14'611.9
2019-Feb-12 13:00N 59°02' E 010°17'713.9
2019-Feb-12 12:31N 59°00' E 010°31'713.6
2019-Feb-12 12:01N 59°02' E 010°44'713.5
2019-Feb-12 11:31N 59°00' E 010°56'814.9
2019-Feb-12 11:00N 58°56' E 011°09'1 1.8
2019-Feb-12 10:31N 58°56' E 011°10'0 0.3
2019-Feb-12 10:00N 58°56' E 011°10'613.1
2019-Feb-12 09:30N 58°59' E 010°59'714.6
2019-Feb-12 09:00N 59°02' E 010°46'714.9
2019-Feb-12 08:30N 59°01' E 010°32'714.8
2019-Feb-12 08:00N 59°01' E 010°17'612.4
2019-Feb-12 07:31N 59°07' E 010°14'0 0.6
2019-Feb-12 07:01N 59°08' E 010°14'1 2.9
2019-Feb-12 06:31N 59°06' E 010°14'0 0.0
2019-Feb-12 05:59N 59°06' E 010°14'0 0.0
2019-Feb-12 05:29N 59°06' E 010°14'0 0.0
2019-Feb-12 04:59N 59°06' E 010°14'0 0.0
2019-Feb-12 04:30N 59°06' E 010°14'0 0.0
2019-Feb-12 04:00N 59°06' E 010°14'0 0.0
2019-Feb-12 03:30N 59°06' E 010°14'0 0.0
2019-Feb-12 03:01N 59°06' E 010°14'0 0.0
2019-Feb-12 02:28N 59°06' E 010°14'0 0.0
2019-Feb-12 01:58N 59°06' E 010°14'0 0.0
2019-Feb-12 01:29N 59°06' E 010°14'0 0.0
2019-Feb-12 00:59N 59°06' E 010°14'0 0.0
2019-Feb-12 00:29N 59°06' E 010°14'0 0.0
2019-Feb-12 00:00N 59°06' E 010°14'0 0.0
2019-Feb-11 23:30N 59°06' E 010°14'0 0.0
2019-Feb-11 23:00N 59°06' E 010°14'0 0.0
2019-Feb-11 22:31N 59°06' E 010°14'0 0.0
2019-Feb-11 21:58N 59°06' E 010°14'0 0.0
2019-Feb-11 21:28N 59°06' E 010°14'0 0.0
2019-Feb-11 20:59N 59°06' E 010°14'0 0.1
2019-Feb-11 20:30N 59°06' E 010°14'1 2.7
2019-Feb-11 20:01N 59°08' E 010°14'510.0
2019-Feb-11 19:31N 59°03' E 010°15'714.3
2019-Feb-11 19:00N 59°01' E 010°29'815.5
2019-Feb-11 18:30N 59°02' E 010°44'815.0
2019-Feb-11 18:00N 58°60' E 010°58'713.7
2019-Feb-11 17:30N 58°56' E 011°09'1 1.7
2019-Feb-11 17:01N 58°56' E 011°10'4 8.4
2019-Feb-11 16:30N 58°58' E 011°03'714.8
2019-Feb-11 16:01N 59°01' E 010°50'714.9
2019-Feb-11 15:30N 59°01' E 010°36'714.8
2019-Feb-11 15:00N 59°01' E 010°21'612.8
2019-Feb-11 14:31N 59°06' E 010°14'2 3.0
2019-Feb-11 14:00N 59°08' E 010°14'0 0.8
2019-Feb-11 13:30N 59°07' E 010°14'611.9
2019-Feb-11 13:00N 59°02' E 010°17'714.2
2019-Feb-11 12:30N 59°01' E 010°30'714.4
2019-Feb-11 12:00N 59°01' E 010°44'714.4
2019-Feb-11 11:30N 58°60' E 010°58'713.8
2019-Feb-11 11:00N 58°56' E 011°09'1 1.7
2019-Feb-11 10:31N 58°56' E 011°10'0 0.3
2019-Feb-11 10:00N 58°56' E 011°10'612.6
2019-Feb-11 09:30N 58°59' E 010°60'815.4
2019-Feb-11 09:00N 59°01' E 010°45'714.7
2019-Feb-11 08:30N 58°60' E 010°31'714.8
2019-Feb-11 08:01N 59°01' E 010°17'612.1
2019-Feb-11 07:30N 59°07' E 010°14'0 0.5
2019-Feb-11 07:00N 59°08' E 010°14'1 2.9
2019-Feb-11 06:31N 59°06' E 010°14'0 0.0
2019-Feb-11 05:58N 59°06' E 010°14'0 0.0
2019-Feb-11 05:28N 59°06' E 010°14'0 0.0
2019-Feb-11 04:58N 59°06' E 010°14'0 0.0
2019-Feb-11 04:29N 59°06' E 010°14'0 0.0
2019-Feb-11 03:59N 59°06' E 010°14'0 0.0
2019-Feb-11 03:29N 59°06' E 010°14'0 0.0
2019-Feb-11 03:00N 59°06' E 010°14'0 0.0
2019-Feb-11 02:30N 59°06' E 010°14'0 0.0
2019-Feb-11 02:00N 59°06' E 010°14'0 0.0
2019-Feb-11 01:28N 59°06' E 010°14'0 0.0
2019-Feb-11 00:58N 59°06' E 010°14'0 0.0
2019-Feb-11 00:28N 59°06' E 010°14'0 0.0
2019-Feb-10 23:59N 59°06' E 010°14'0 0.0
2019-Feb-10 23:29N 59°06' E 010°14'0 0.0
2019-Feb-10 22:59N 59°06' E 010°14'0 0.0
2019-Feb-10 22:30N 59°06' E 010°14'0 0.0
2019-Feb-10 22:00N 59°06' E 010°14'0 0.0
2019-Feb-10 21:30N 59°06' E 010°14'0 0.0
2019-Feb-10 20:58N 59°06' E 010°14'0 0.5
2019-Feb-10 20:30N 59°06' E 010°14'1 2.4
2019-Feb-10 20:00N 59°08' E 010°14'510.7
2019-Feb-10 19:31N 59°02' E 010°15'714.8
2019-Feb-10 19:01N 58°59' E 010°29'815.4
2019-Feb-10 18:31N 59°01' E 010°43'815.3
2019-Feb-10 18:01N 59°00' E 010°58'714.2
2019-Feb-10 17:30N 58°56' E 011°09'1 1.7
2019-Feb-10 17:01N 58°56' E 011°10'4 8.6
2019-Feb-10 16:31N 58°58' E 011°03'815.2
2019-Feb-10 16:01N 59°01' E 010°50'815.0
2019-Feb-10 15:31N 59°01' E 010°35'815.1
2019-Feb-10 15:01N 59°01' E 010°20'612.5
2019-Feb-10 14:31N 59°06' E 010°14'1 2.8
2019-Feb-10 14:00N 59°08' E 010°14'1 1.0
2019-Feb-10 13:29N 59°07' E 010°14'611.7
2019-Feb-10 13:00N 59°02' E 010°16'713.4
2019-Feb-10 12:30N 58°60' E 010°29'713.6
2019-Feb-10 12:00N 59°01' E 010°42'714.0
2019-Feb-10 11:31N 59°00' E 010°55'816.1
2019-Feb-10 11:00N 58°56' E 011°08'1 2.1
2019-Feb-10 10:30N 58°56' E 011°10'0 0.2
2019-Feb-10 10:00N 58°56' E 011°10'613.0
2019-Feb-10 09:31N 58°59' E 010°59'815.4
2019-Feb-10 09:01N 59°01' E 010°45'815.7
2019-Feb-10 08:31N 58°59' E 010°30'815.4
2019-Feb-10 08:00N 59°02' E 010°16'611.6
2019-Feb-10 07:30N 59°07' E 010°14'0 0.2
2019-Feb-10 07:00N 59°08' E 010°14'1 2.8
2019-Feb-10 06:30N 59°06' E 010°14'0 0.0
2019-Feb-10 05:59N 59°06' E 010°14'0 0.0
2019-Feb-10 05:29N 59°06' E 010°14'0 0.0
2019-Feb-10 04:59N 59°06' E 010°14'0 0.0
2019-Feb-10 04:30N 59°06' E 010°14'0 0.0
2019-Feb-10 04:00N 59°06' E 010°14'0 0.0
2019-Feb-10 03:30N 59°06' E 010°14'0 0.0
2019-Feb-10 02:58N 59°06' E 010°14'0 0.0
2019-Feb-10 02:28N 59°06' E 010°14'0 0.0
2019-Feb-10 01:58N 59°06' E 010°14'0 0.0
2019-Feb-10 01:29N 59°06' E 010°14'0 0.0
2019-Feb-10 00:59N 59°06' E 010°14'0 0.0
2019-Feb-10 00:29N 59°06' E 010°14'0 0.0
2019-Feb-10 00:00N 59°06' E 010°14'0 0.0
2019-Feb-09 23:30N 59°06' E 010°14'0 0.0
2019-Feb-09 23:00N 59°06' E 010°14'0 0.0
2019-Feb-09 22:25N 59°06' E 010°14'0 0.0
2019-Feb-09 21:58N 59°06' E 010°14'0 0.0
2019-Feb-09 21:28N 59°06' E 010°14'0 0.0
2019-Feb-09 20:59N 59°06' E 010°14'1 2.0
2019-Feb-09 20:29N 59°07' E 010°14'0 0.9
2019-Feb-09 20:00N 59°08' E 010°14'611.4
2019-Feb-09 19:31N 59°02' E 010°16'816.0
2019-Feb-09 19:01N 58°59' E 010°30'714.7
2019-Feb-09 18:31N 59°01' E 010°44'714.6
2019-Feb-09 18:01N 59°00' E 010°58'714.4
2019-Feb-09 17:30N 58°56' E 011°09'1 1.4
2019-Feb-09 17:01N 58°56' E 011°10'4 8.8
2019-Feb-09 16:31N 58°58' E 011°02'714.9
2019-Feb-09 16:01N 59°01' E 010°50'815.0
2019-Feb-09 15:31N 58°59' E 010°36'714.9
2019-Feb-09 15:00N 59°01' E 010°21'612.8
2019-Feb-09 14:31N 59°06' E 010°14'2 3.6
2019-Feb-09 14:01N 59°08' E 010°14'0 0.4
2019-Feb-09 13:30N 59°07' E 010°14'611.9
2019-Feb-09 13:01N 59°02' E 010°16'714.3
2019-Feb-09 12:31N 58°60' E 010°30'714.9
2019-Feb-09 12:01N 59°01' E 010°44'714.2
2019-Feb-09 11:31N 59°00' E 010°57'714.6
2019-Feb-09 11:00N 58°56' E 011°09'1 1.1
2019-Feb-09 10:31N 58°56' E 011°10'0 0.1
2019-Feb-09 10:00N 58°56' E 011°10'713.1
2019-Feb-09 09:31N 58°59' E 010°59'815.6
2019-Feb-09 09:01N 59°01' E 010°45'816.0
2019-Feb-09 08:31N 58°59' E 010°30'715.0
2019-Feb-09 08:01N 59°02' E 010°16'611.7
2019-Feb-09 07:30N 59°07' E 010°14'0 0.2
2019-Feb-09 07:01N 59°08' E 010°14'1 2.8
2019-Feb-09 06:30N 59°06' E 010°14'0 0.0
2019-Feb-09 05:59N 59°06' E 010°14'0 0.0
2019-Feb-09 05:29N 59°06' E 010°14'0 0.0
2019-Feb-09 05:00N 59°06' E 010°14'0 0.0
2019-Feb-09 04:30N 59°06' E 010°14'0 0.0
2019-Feb-09 04:00N 59°06' E 010°14'0 0.0
2019-Feb-09 03:28N 59°06' E 010°14'0 0.0
2019-Feb-09 02:58N 59°06' E 010°14'0 0.0
2019-Feb-09 02:28N 59°06' E 010°14'0 0.0
2019-Feb-09 01:59N 59°06' E 010°14'0 0.0
2019-Feb-09 01:29N 59°06' E 010°14'0 0.0
2019-Feb-09 00:59N 59°06' E 010°14'0 0.0
2019-Feb-09 00:30N 59°06' E 010°14'0 0.0
2019-Feb-09 00:00N 59°06' E 010°14'0 0.0
2019-Feb-08 23:30N 59°06' E 010°14'0 0.0
2019-Feb-08 22:58N 59°06' E 010°14'0 0.0
2019-Feb-08 22:28N 59°06' E 010°14'0 0.0
2019-Feb-08 21:58N 59°06' E 010°14'0 0.0
2019-Feb-08 21:29N 59°06' E 010°14'0 0.0
2019-Feb-08 20:59N 59°06' E 010°14'0 0.4
2019-Feb-08 20:30N 59°06' E 010°14'1 2.4
2019-Feb-08 20:01N 59°08' E 010°14'510.9
2019-Feb-08 19:31N 59°02' E 010°15'815.2
2019-Feb-08 19:00N 58°60' E 010°30'815.7
2019-Feb-08 18:30N 59°02' E 010°44'815.5
2019-Feb-08 18:01N 58°60' E 010°59'713.6
2019-Feb-08 17:30N 58°56' E 011°10'0 0.2
2019-Feb-08 17:00N 58°56' E 011°10'5 9.2
2019-Feb-08 16:31N 58°58' E 011°02'815.3
2019-Feb-08 16:00N 59°01' E 010°49'815.5
2019-Feb-08 15:30N 59°00' E 010°34'815.0
2019-Feb-08 15:00N 59°01' E 010°19'612.9
2019-Feb-08 14:31N 59°07' E 010°14'1 1.8
2019-Feb-08 14:01N 59°08' E 010°14'0 0.4
2019-Feb-08 13:30N 59°07' E 010°14'611.8
2019-Feb-08 13:00N 59°02' E 010°16'714.8
2019-Feb-08 12:30N 59°00' E 010°30'714.6
2019-Feb-08 12:00N 59°02' E 010°44'714.3
2019-Feb-08 11:30N 58°60' E 010°58'714.1
2019-Feb-08 11:00N 58°56' E 011°09'0 0.9
2019-Feb-08 10:31N 58°56' E 011°10'0 0.5
2019-Feb-08 10:00N 58°56' E 011°10'713.2
2019-Feb-08 09:30N 58°60' E 010°59'714.9
2019-Feb-08 09:00N 59°02' E 010°45'815.2
2019-Feb-08 08:30N 59°00' E 010°30'715.0
2019-Feb-08 08:01N 59°02' E 010°16'611.9
2019-Feb-08 07:30N 59°07' E 010°14'0 0.3
2019-Feb-08 07:01N 59°08' E 010°14'1 2.9
2019-Feb-08 06:30N 59°06' E 010°14'0 0.0
2019-Feb-08 06:00N 59°06' E 010°14'0 0.0
2019-Feb-08 05:28N 59°06' E 010°14'0 0.0
2019-Feb-08 04:58N 59°06' E 010°14'0 0.0
2019-Feb-08 04:29N 59°06' E 010°14'0 0.0
2019-Feb-08 03:59N 59°06' E 010°14'0 0.0
2019-Feb-08 03:29N 59°06' E 010°14'0 0.0
2019-Feb-08 03:00N 59°06' E 010°14'0 0.0
2019-Feb-08 02:30N 59°06' E 010°14'0 0.0
2019-Feb-08 02:00N 59°06' E 010°14'0 0.0
2019-Feb-08 01:31N 59°06' E 010°14'0 0.0
2019-Feb-08 00:58N 59°06' E 010°14'0 0.0
2019-Feb-08 00:28N 59°06' E 010°14'0 0.0
2019-Feb-07 23:59N 59°06' E 010°14'0 0.0
2019-Feb-07 23:26N 59°06' E 010°14'0 0.0
2019-Feb-07 22:59N 59°06' E 010°14'0 0.0
2019-Feb-07 22:30N 59°06' E 010°14'0 0.0
2019-Feb-07 22:00N 59°06' E 010°14'0 0.0
2019-Feb-07 21:30N 59°06' E 010°14'0 0.0
2019-Feb-07 21:01N 59°06' E 010°14'0 0.2
2019-Feb-07 20:30N 59°06' E 010°14'1 2.6
2019-Feb-07 20:00N 59°08' E 010°14'4 8.5
2019-Feb-07 19:31N 59°03' E 010°15'714.1
2019-Feb-07 19:00N 59°01' E 010°28'815.5
2019-Feb-07 18:31N 59°02' E 010°43'815.0
2019-Feb-07 18:01N 59°00' E 010°57'714.7
2019-Feb-07 17:30N 58°56' E 011°09'1 1.7
2019-Feb-07 17:00N 58°56' E 011°10'4 8.9
2019-Feb-07 16:31N 58°58' E 011°02'714.6
2019-Feb-07 16:01N 59°01' E 010°50'714.8
2019-Feb-07 15:31N 59°01' E 010°36'714.6
2019-Feb-07 15:01N 59°01' E 010°21'612.6
2019-Feb-07 14:31N 59°06' E 010°14'2 3.4
2019-Feb-07 14:01N 59°08' E 010°14'0 0.8
2019-Feb-07 13:30N 59°07' E 010°14'611.5
2019-Feb-07 13:01N 59°02' E 010°17'714.6
2019-Feb-07 12:31N 59°01' E 010°31'714.5
2019-Feb-07 12:01N 59°02' E 010°44'714.2
2019-Feb-07 11:31N 58°60' E 010°58'714.1
2019-Feb-07 11:01N 58°56' E 011°09'1 1.2
2019-Feb-07 10:30N 58°56' E 011°10'0 0.4
2019-Feb-07 10:00N 58°56' E 011°10'613.0
2019-Feb-07 09:31N 58°59' E 010°59'714.5
2019-Feb-07 09:01N 59°02' E 010°46'714.7
2019-Feb-07 08:31N 59°00' E 010°32'714.6
2019-Feb-07 08:01N 59°01' E 010°18'612.4
2019-Feb-07 07:30N 59°07' E 010°14'0 0.7
2019-Feb-07 07:01N 59°08' E 010°14'1 2.8
2019-Feb-07 06:30N 59°06' E 010°14'0 0.0
2019-Feb-07 05:59N 59°06' E 010°14'0 0.0
2019-Feb-07 05:29N 59°06' E 010°14'0 0.0
2019-Feb-07 04:59N 59°06' E 010°14'0 0.0
2019-Feb-07 04:30N 59°06' E 010°14'0 0.0
2019-Feb-07 04:00N 59°06' E 010°14'0 0.0
2019-Feb-07 03:27N 59°06' E 010°14'0 0.0
2019-Feb-07 03:01N 59°06' E 010°14'0 0.0
2019-Feb-07 02:28N 59°06' E 010°14'0 0.0
2019-Feb-07 01:58N 59°06' E 010°14'0 0.0
2019-Feb-07 01:29N 59°06' E 010°14'0 0.0
2019-Feb-07 00:59N 59°06' E 010°14'0 0.0
2019-Feb-07 00:29N 59°06' E 010°14'0 0.0
2019-Feb-07 00:00N 59°06' E 010°14'0 0.0
2019-Feb-06 23:30N 59°06' E 010°14'0 0.0
2019-Feb-06 23:00N 59°06' E 010°14'0 0.0
2019-Feb-06 22:31N 59°06' E 010°14'0 0.0
2019-Feb-06 21:58N 59°06' E 010°14'0 0.0
2019-Feb-06 21:28N 59°06' E 010°14'0 0.0
2019-Feb-06 21:01N 59°06' E 010°14'1 2.4
2019-Feb-06 20:30N 59°07' E 010°14'0 0.2
2019-Feb-06 20:00N 59°08' E 010°14'612.1
2019-Feb-06 19:31N 59°02' E 010°16'815.8
2019-Feb-06 19:00N 59°00' E 010°31'714.5
2019-Feb-06 18:30N 59°02' E 010°45'714.4
2019-Feb-06 18:01N 58°60' E 010°59'713.4
2019-Feb-06 17:30N 58°56' E 011°09'0 0.7
2019-Feb-06 17:01N 58°56' E 011°10'5 9.1
2019-Feb-06 16:31N 58°58' E 011°02'714.6
2019-Feb-06 16:01N 59°01' E 010°50'714.8
2019-Feb-06 15:30N 59°01' E 010°35'815.1
2019-Feb-06 15:00N 59°01' E 010°21'612.5
2019-Feb-06 14:30N 59°06' E 010°14'1 2.8
2019-Feb-06 14:00N 59°08' E 010°14'0 0.0
2019-Feb-06 13:30N 59°08' E 010°14'611.5
2019-Feb-06 13:00N 59°02' E 010°16'714.6
2019-Feb-06 12:30N 59°01' E 010°30'714.4
2019-Feb-06 12:01N 59°02' E 010°44'714.5
2019-Feb-06 11:30N 59°00' E 010°57'714.4
2019-Feb-06 11:01N 58°56' E 011°08'1 1.7
2019-Feb-06 10:31N 58°56' E 011°10'0 0.0
2019-Feb-06 10:01N 58°56' E 011°10'510.8
2019-Feb-06 09:31N 58°59' E 011°01'815.4
2019-Feb-06 09:01N 59°02' E 010°47'816.0
2019-Feb-06 08:31N 58°60' E 010°32'815.7
2019-Feb-06 08:00N 59°01' E 010°17'612.4
2019-Feb-06 07:31N 59°07' E 010°14'0 0.6
2019-Feb-06 07:00N 59°08' E 010°14'1 2.9
2019-Feb-06 06:30N 59°06' E 010°14'0 0.0
2019-Feb-06 06:00N 59°06' E 010°14'0 0.0
2019-Feb-06 05:30N 59°06' E 010°14'0 0.0
2019-Feb-06 05:00N 59°06' E 010°14'0 0.0
2019-Feb-06 04:28N 59°06' E 010°14'  
Track history (hours):
 
Tides and Currents Weather Stations Pressure Air Temp Water Temp Dewpoint Dewpoint Depression Visibility Wind Speed Wind Dir Waves Ship Positions

DucheSS Of Scandinavia

Operator: DFDS A/S

Last reported at 2019-Feb-16 04:00 UTC. Time now 2019-Feb-16 04:20 UTC.
Position N 59°06' E 010°14'.

Length 134 m; draft 5.4 m.

Type: Passenger vessel. MMSI: 219002929.

Date/timePositionNaut miles runAvg speedWind from/ knotsBaromVisibWave heightAir tempDewpointWater temp
2019-Feb-16 04:00N 59°06' E 010°14'0 0.0
2019-Feb-16 03:30N 59°06' E 010°14'0 0.0
2019-Feb-16 03:00N 59°06' E 010°14'0 0.0
2019-Feb-16 02:28N 59°06' E 010°14'0 0.0
2019-Feb-16 01:58N 59°06' E 010°14'0 0.0
2019-Feb-16 01:28N 59°06' E 010°14'0 0.0
2019-Feb-16 00:59N 59°06' E 010°14'0 0.0
2019-Feb-16 00:29N 59°06' E 010°14'0 0.0
2019-Feb-15 23:59N 59°06' E 010°14'0 0.0
2019-Feb-15 23:30N 59°06' E 010°14'0 0.0
2019-Feb-15 23:00N 59°06' E 010°14'0 0.0
2019-Feb-15 22:30N 59°06' E 010°14'0 0.0
2019-Feb-15 21:58N 59°06' E 010°14'0 0.0
2019-Feb-15 21:28N 59°06' E 010°14'0 0.0
2019-Feb-15 20:58N 59°06' E 010°14'1 2.4
2019-Feb-15 20:30N 59°07' E 010°14'0 0.6
2019-Feb-15 20:00N 59°08' E 010°14'611.9
2019-Feb-15 19:31N 59°02' E 010°16'816.2
2019-Feb-15 19:00N 59°00' E 010°31'714.2
2019-Feb-15 18:31N 59°02' E 010°45'714.4
2019-Feb-15 18:01N 59°00' E 010°58'714.1
2019-Feb-15 17:30N 58°56' E 011°09'0 1.0
2019-Feb-15 17:01N 58°56' E 011°10'4 8.9
2019-Feb-15 16:31N 58°58' E 011°02'714.7
2019-Feb-15 16:01N 59°01' E 010°50'714.9
2019-Feb-15 15:30N 59°01' E 010°35'815.2
2019-Feb-15 15:00N 59°01' E 010°21'612.4
2019-Feb-15 14:31N 59°06' E 010°14'1 2.7
2019-Feb-15 14:00N 59°08' E 010°14'0 0.5
2019-Feb-15 13:30N 59°07' E 010°14'612.0
2019-Feb-15 13:01N 59°02' E 010°17'714.3
2019-Feb-15 12:31N 59°00' E 010°31'714.3
2019-Feb-15 12:00N 59°02' E 010°44'714.0
2019-Feb-15 11:31N 58°60' E 010°58'714.3
2019-Feb-15 11:01N 58°56' E 011°09'1 1.3
2019-Feb-15 10:30N 58°56' E 011°10'0 0.2
2019-Feb-15 10:00N 58°56' E 011°10'713.9
2019-Feb-15 09:30N 58°60' E 010°59'815.7
2019-Feb-15 09:00N 59°02' E 010°44'816.2
2019-Feb-15 08:30N 59°01' E 010°28'714.5
2019-Feb-15 08:01N 59°03' E 010°15'5 9.0
2019-Feb-15 07:30N 59°08' E 010°14'0 0.0
2019-Feb-15 07:01N 59°08' E 010°14'1 2.9
2019-Feb-15 06:31N 59°06' E 010°14'0 0.0
2019-Feb-15 05:59N 59°06' E 010°14'0 0.0
2019-Feb-15 05:29N 59°06' E 010°14'0 0.0
2019-Feb-15 04:59N 59°06' E 010°14'0 0.0
2019-Feb-15 04:30N 59°06' E 010°14'0 0.0
2019-Feb-15 04:00N 59°06' E 010°14'0 0.0
2019-Feb-15 03:30N 59°06' E 010°14'0 0.0
2019-Feb-15 02:58N 59°06' E 010°14'0 0.0
2019-Feb-15 02:28N 59°06' E 010°14'0 0.0
2019-Feb-15 01:58N 59°06' E 010°14'0 0.0
2019-Feb-15 01:29N 59°06' E 010°14'0 0.0
2019-Feb-15 00:59N 59°06' E 010°14'0 0.0
2019-Feb-15 00:29N 59°06' E 010°14'0 0.0
2019-Feb-15 00:00N 59°06' E 010°14'0 0.0
2019-Feb-14 23:30N 59°06' E 010°14'0 0.0
2019-Feb-14 23:00N 59°06' E 010°14'0 0.0
2019-Feb-14 22:28N 59°06' E 010°14'0 0.0
2019-Feb-14 21:58N 59°06' E 010°14'0 0.0
2019-Feb-14 21:28N 59°06' E 010°14'0 0.0
2019-Feb-14 21:00N 59°06' E 010°14'1 2.6
2019-Feb-14 20:31N 59°07' E 010°14'1 1.1
2019-Feb-14 20:00N 59°07' E 010°14'612.3
2019-Feb-14 19:30N 59°01' E 010°19'815.6
2019-Feb-14 19:00N 59°01' E 010°34'713.8
2019-Feb-14 18:31N 59°02' E 010°47'714.2
2019-Feb-14 18:01N 58°59' E 011°00'612.0
2019-Feb-14 17:30N 58°56' E 011°10'0 0.4
2019-Feb-14 17:00N 58°56' E 011°10'5 9.1
2019-Feb-14 16:30N 58°58' E 011°02'815.8
2019-Feb-14 16:00N 59°02' E 010°49'815.4
2019-Feb-14 15:30N 59°01' E 010°34'815.4
2019-Feb-14 15:00N 59°01' E 010°19'612.7
2019-Feb-14 14:30N 59°07' E 010°14'1 1.5
2019-Feb-14 14:01N 59°08' E 010°14'0 0.6
2019-Feb-14 13:30N 59°07' E 010°14'611.9
2019-Feb-14 13:01N 59°02' E 010°17'713.9
2019-Feb-14 12:31N 59°01' E 010°30'714.1
2019-Feb-14 12:01N 59°01' E 010°44'713.9
2019-Feb-14 11:31N 59°00' E 010°57'714.3
2019-Feb-14 11:01N 58°56' E 011°08'1 2.0
2019-Feb-14 10:31N 58°56' E 011°10'0 0.0
2019-Feb-14 10:00N 58°56' E 011°10'612.1
2019-Feb-14 09:31N 58°59' E 011°00'815.2
2019-Feb-14 09:01N 59°02' E 010°46'815.4
2019-Feb-14 08:31N 59°00' E 010°32'815.0
2019-Feb-14 08:01N 59°01' E 010°17'612.2
2019-Feb-14 07:30N 59°07' E 010°14'0 0.5
2019-Feb-14 07:01N 59°08' E 010°14'1 2.8
2019-Feb-14 06:30N 59°06' E 010°14'0 0.0
2019-Feb-14 05:59N 59°06' E 010°14'0 0.0
2019-Feb-14 05:30N 59°06' E 010°14'0 0.0
2019-Feb-14 05:00N 59°06' E 010°14'0 0.0
2019-Feb-14 04:30N 59°06' E 010°14'0 0.0
2019-Feb-14 03:58N 59°06' E 010°14'0 0.0
2019-Feb-14 02:58N 59°06' E 010°14'0 0.0
2019-Feb-14 02:29N 59°06' E 010°14'0 0.0
2019-Feb-14 01:59N 59°06' E 010°14'0 0.0
2019-Feb-14 01:29N 59°06' E 010°14'0 0.0
2019-Feb-14 01:00N 59°06' E 010°14'0 0.0
2019-Feb-14 00:30N 59°06' E 010°14'0 0.0
2019-Feb-14 00:00N 59°06' E 010°14'0 0.0
2019-Feb-13 23:28N 59°06' E 010°14'0 0.0
2019-Feb-13 22:58N 59°06' E 010°14'0 0.0
2019-Feb-13 22:28N 59°06' E 010°14'0 0.0
2019-Feb-13 21:59N 59°06' E 010°14'0 0.0
2019-Feb-13 21:29N 59°06' E 010°14'0 0.0
2019-Feb-13 20:59N 59°06' E 010°14'0 0.2
2019-Feb-13 20:31N 59°06' E 010°14'1 2.6
2019-Feb-13 20:01N 59°08' E 010°14'510.6
2019-Feb-13 19:30N 59°02' E 010°15'714.9
2019-Feb-13 19:01N 59°00' E 010°29'815.3
2019-Feb-13 18:30N 59°02' E 010°44'714.9
2019-Feb-13 18:01N 59°00' E 010°58'714.3
2019-Feb-13 17:30N 58°56' E 011°09'0 0.7
2019-Feb-13 17:01N 58°56' E 011°10'4 7.5
2019-Feb-13 16:30N 58°57' E 011°03'815.9
2019-Feb-13 16:01N 59°01' E 010°50'815.6
2019-Feb-13 15:31N 59°01' E 010°35'815.2
2019-Feb-13 15:00N 59°01' E 010°20'712.9
2019-Feb-13 14:30N 59°07' E 010°14'1 2.0
2019-Feb-13 14:00N 59°08' E 010°14'0 0.8
2019-Feb-13 13:30N 59°07' E 010°14'612.1
2019-Feb-13 13:00N 59°02' E 010°18'714.6
2019-Feb-13 12:31N 59°01' E 010°32'714.4
2019-Feb-13 12:00N 59°02' E 010°46'714.3
2019-Feb-13 11:30N 58°60' E 010°59'713.1
2019-Feb-13 11:00N 58°56' E 011°09'1 1.1
2019-Feb-13 10:31N 58°56' E 011°10'0 0.3
2019-Feb-13 10:00N 58°56' E 011°10'612.8
2019-Feb-13 09:31N 58°59' E 010°60'714.8
2019-Feb-13 09:01N 59°02' E 010°46'714.8
2019-Feb-13 08:30N 59°00' E 010°32'714.6
2019-Feb-13 08:01N 59°01' E 010°18'612.3
2019-Feb-13 07:30N 59°07' E 010°14'0 0.6
2019-Feb-13 07:01N 59°08' E 010°14'1 2.9
2019-Feb-13 06:30N 59°06' E 010°14'0 0.0
2019-Feb-13 05:58N 59°06' E 010°14'0 0.0
2019-Feb-13 05:29N 59°06' E 010°14'0 0.0
2019-Feb-13 04:59N 59°06' E 010°14'0 0.0
2019-Feb-13 04:29N 59°06' E 010°14'0 0.0
2019-Feb-13 04:00N 59°06' E 010°14'0 0.0
2019-Feb-13 03:30N 59°06' E 010°14'0 0.0
2019-Feb-13 03:00N 59°06' E 010°14'0 0.0
2019-Feb-13 02:28N 59°06' E 010°14'0 0.0
2019-Feb-13 01:58N 59°06' E 010°14'0 0.0
2019-Feb-13 01:28N 59°06' E 010°14'0 0.0
2019-Feb-13 00:59N 59°06' E 010°14'0 0.0
2019-Feb-13 00:29N 59°06' E 010°14'0 0.0
2019-Feb-12 23:59N 59°06' E 010°14'0 0.0
2019-Feb-12 23:30N 59°06' E 010°14'0 0.0
2019-Feb-12 23:00N 59°06' E 010°14'0 0.0
2019-Feb-12 22:30N 59°06' E 010°14'0 0.0
2019-Feb-12 21:58N 59°06' E 010°14'0 0.0
2019-Feb-12 21:28N 59°06' E 010°14'0 0.0
2019-Feb-12 20:58N 59°06' E 010°14'1 2.3
2019-Feb-12 20:30N 59°07' E 010°14'0 0.7
2019-Feb-12 20:00N 59°08' E 010°14'611.3
2019-Feb-12 19:31N 59°02' E 010°16'815.0
2019-Feb-12 19:01N 58°60' E 010°30'815.3
2019-Feb-12 18:31N 59°02' E 010°44'815.1
2019-Feb-12 18:01N 58°60' E 010°58'713.8
2019-Feb-12 17:30N 58°56' E 011°09'1 1.1
2019-Feb-12 17:01N 58°56' E 011°10'4 8.7
2019-Feb-12 16:31N 58°58' E 011°03'815.2
2019-Feb-12 16:01N 59°01' E 010°50'714.9
2019-Feb-12 15:31N 59°01' E 010°35'815.0
2019-Feb-12 15:01N 59°01' E 010°21'613.0
2019-Feb-12 14:30N 59°06' E 010°14'1 2.3
2019-Feb-12 14:01N 59°08' E 010°14'0 0.8
2019-Feb-12 13:30N 59°07' E 010°14'611.9
2019-Feb-12 13:00N 59°02' E 010°17'713.9
2019-Feb-12 12:31N 59°00' E 010°31'713.6
2019-Feb-12 12:01N 59°02' E 010°44'713.5
2019-Feb-12 11:31N 59°00' E 010°56'814.9
2019-Feb-12 11:00N 58°56' E 011°09'1 1.8
2019-Feb-12 10:31N 58°56' E 011°10'0 0.3
2019-Feb-12 10:00N 58°56' E 011°10'613.1
2019-Feb-12 09:30N 58°59' E 010°59'714.6
2019-Feb-12 09:00N 59°02' E 010°46'714.9
2019-Feb-12 08:30N 59°01' E 010°32'714.8
2019-Feb-12 08:00N 59°01' E 010°17'612.4
2019-Feb-12 07:31N 59°07' E 010°14'0 0.6
2019-Feb-12 07:01N 59°08' E 010°14'1 2.9
2019-Feb-12 06:31N 59°06' E 010°14'0 0.0
2019-Feb-12 05:59N 59°06' E 010°14'0 0.0
2019-Feb-12 05:29N 59°06' E 010°14'0 0.0
2019-Feb-12 04:59N 59°06' E 010°14'0 0.0
2019-Feb-12 04:30N 59°06' E 010°14'0 0.0
2019-Feb-12 04:00N 59°06' E 010°14'0 0.0
2019-Feb-12 03:30N 59°06' E 010°14'0 0.0
2019-Feb-12 03:01N 59°06' E 010°14'0 0.0
2019-Feb-12 02:28N 59°06' E 010°14'0 0.0
2019-Feb-12 01:58N 59°06' E 010°14'0 0.0
2019-Feb-12 01:29N 59°06' E 010°14'0 0.0
2019-Feb-12 00:59N 59°06' E 010°14'0 0.0
2019-Feb-12 00:29N 59°06' E 010°14'0 0.0
2019-Feb-12 00:00N 59°06' E 010°14'0 0.0
2019-Feb-11 23:30N 59°06' E 010°14'0 0.0
2019-Feb-11 23:00N 59°06' E 010°14'0 0.0
2019-Feb-11 22:31N 59°06' E 010°14'0 0.0
2019-Feb-11 21:58N 59°06' E 010°14'0 0.0
2019-Feb-11 21:28N 59°06' E 010°14'0 0.0
2019-Feb-11 20:59N 59°06' E 010°14'0 0.1
2019-Feb-11 20:30N 59°06' E 010°14'1 2.7
2019-Feb-11 20:01N 59°08' E 010°14'510.0
2019-Feb-11 19:31N 59°03' E 010°15'714.3
2019-Feb-11 19:00N 59°01' E 010°29'815.5
2019-Feb-11 18:30N 59°02' E 010°44'815.0
2019-Feb-11 18:00N 58°60' E 010°58'713.7
2019-Feb-11 17:30N 58°56' E 011°09'1 1.7
2019-Feb-11 17:01N 58°56' E 011°10'4 8.4
2019-Feb-11 16:30N 58°58' E 011°03'714.8
2019-Feb-11 16:01N 59°01' E 010°50'714.9
2019-Feb-11 15:30N 59°01' E 010°36'714.8
2019-Feb-11 15:00N 59°01' E 010°21'612.8
2019-Feb-11 14:31N 59°06' E 010°14'2 3.0
2019-Feb-11 14:00N 59°08' E 010°14'0 0.8
2019-Feb-11 13:30N 59°07' E 010°14'611.9
2019-Feb-11 13:00N 59°02' E 010°17'714.2
2019-Feb-11 12:30N 59°01' E 010°30'714.4
2019-Feb-11 12:00N 59°01' E 010°44'714.4
2019-Feb-11 11:30N 58°60' E 010°58'713.8
2019-Feb-11 11:00N 58°56' E 011°09'1 1.7
2019-Feb-11 10:31N 58°56' E 011°10'0 0.3
2019-Feb-11 10:00N 58°56' E 011°10'612.6
2019-Feb-11 09:30N 58°59' E 010°60'815.4
2019-Feb-11 09:00N 59°01' E 010°45'714.7
2019-Feb-11 08:30N 58°60' E 010°31'714.8
2019-Feb-11 08:01N 59°01' E 010°17'612.1
2019-Feb-11 07:30N 59°07' E 010°14'0 0.5
2019-Feb-11 07:00N 59°08' E 010°14'1 2.9
2019-Feb-11 06:31N 59°06' E 010°14'0 0.0
2019-Feb-11 05:58N 59°06' E 010°14'0 0.0
2019-Feb-11 05:28N 59°06' E 010°14'0 0.0
2019-Feb-11 04:58N 59°06' E 010°14'0 0.0
2019-Feb-11 04:29N 59°06' E 010°14'0 0.0
2019-Feb-11 03:59N 59°06' E 010°14'0 0.0
2019-Feb-11 03:29N 59°06' E 010°14'0 0.0
2019-Feb-11 03:00N 59°06' E 010°14'0 0.0
2019-Feb-11 02:30N 59°06' E 010°14'0 0.0
2019-Feb-11 02:00N 59°06' E 010°14'0 0.0
2019-Feb-11 01:28N 59°06' E 010°14'0 0.0
2019-Feb-11 00:58N 59°06' E 010°14'0 0.0
2019-Feb-11 00:28N 59°06' E 010°14'0 0.0
2019-Feb-10 23:59N 59°06' E 010°14'0 0.0
2019-Feb-10 23:29N 59°06' E 010°14'0 0.0
2019-Feb-10 22:59N 59°06' E 010°14'0 0.0
2019-Feb-10 22:30N 59°06' E 010°14'0 0.0
2019-Feb-10 22:00N 59°06' E 010°14'0 0.0
2019-Feb-10 21:30N 59°06' E 010°14'0 0.0
2019-Feb-10 20:58N 59°06' E 010°14'0 0.5
2019-Feb-10 20:30N 59°06' E 010°14'1 2.4
2019-Feb-10 20:00N 59°08' E 010°14'510.7
2019-Feb-10 19:31N 59°02' E 010°15'714.8
2019-Feb-10 19:01N 58°59' E 010°29'815.4
2019-Feb-10 18:31N 59°01' E 010°43'815.3
2019-Feb-10 18:01N 59°00' E 010°58'714.2
2019-Feb-10 17:30N 58°56' E 011°09'1 1.7
2019-Feb-10 17:01N 58°56' E 011°10'4 8.6
2019-Feb-10 16:31N 58°58' E 011°03'815.2
2019-Feb-10 16:01N 59°01' E 010°50'815.0
2019-Feb-10 15:31N 59°01' E 010°35'815.1
2019-Feb-10 15:01N 59°01' E 010°20'612.5
2019-Feb-10 14:31N 59°06' E 010°14'1 2.8
2019-Feb-10 14:00N 59°08' E 010°14'1 1.0
2019-Feb-10 13:29N 59°07' E 010°14'611.7
2019-Feb-10 13:00N 59°02' E 010°16'713.4
2019-Feb-10 12:30N 58°60' E 010°29'713.6
2019-Feb-10 12:00N 59°01' E 010°42'714.0
2019-Feb-10 11:31N 59°00' E 010°55'816.1
2019-Feb-10 11:00N 58°56' E 011°08'1 2.1
2019-Feb-10 10:30N 58°56' E 011°10'0 0.2
2019-Feb-10 10:00N 58°56' E 011°10'613.0
2019-Feb-10 09:31N 58°59' E 010°59'815.4
2019-Feb-10 09:01N 59°01' E 010°45'815.7
2019-Feb-10 08:31N 58°59' E 010°30'815.4
2019-Feb-10 08:00N 59°02' E 010°16'611.6
2019-Feb-10 07:30N 59°07' E 010°14'0 0.2
2019-Feb-10 07:00N 59°08' E 010°14'1 2.8
2019-Feb-10 06:30N 59°06' E 010°14'0 0.0
2019-Feb-10 05:59N 59°06' E 010°14'0 0.0
2019-Feb-10 05:29N 59°06' E 010°14'0 0.0
2019-Feb-10 04:59N 59°06' E 010°14'0 0.0
2019-Feb-10 04:30N 59°06' E 010°14'0 0.0
2019-Feb-10 04:00N 59°06' E 010°14'0 0.0
2019-Feb-10 03:30N 59°06' E 010°14'0 0.0
2019-Feb-10 02:58N 59°06' E 010°14'0 0.0
2019-Feb-10 02:28N 59°06' E 010°14'0 0.0
2019-Feb-10 01:58N 59°06' E 010°14'0 0.0
2019-Feb-10 01:29N 59°06' E 010°14'0 0.0
2019-Feb-10 00:59N 59°06' E 010°14'0 0.0
2019-Feb-10 00:29N 59°06' E 010°14'0 0.0
2019-Feb-10 00:00N 59°06' E 010°14'0 0.0
2019-Feb-09 23:30N 59°06' E 010°14'0 0.0
2019-Feb-09 23:00N 59°06' E 010°14'0 0.0
2019-Feb-09 22:25N 59°06' E 010°14'0 0.0
2019-Feb-09 21:58N 59°06' E 010°14'0 0.0
2019-Feb-09 21:28N 59°06' E 010°14'0 0.0
2019-Feb-09 20:59N 59°06' E 010°14'1 2.0
2019-Feb-09 20:29N 59°07' E 010°14'0 0.9
2019-Feb-09 20:00N 59°08' E 010°14'611.4
2019-Feb-09 19:31N 59°02' E 010°16'816.0
2019-Feb-09 19:01N 58°59' E 010°30'714.7
2019-Feb-09 18:31N 59°01' E 010°44'714.6
2019-Feb-09 18:01N 59°00' E 010°58'714.4
2019-Feb-09 17:30N 58°56' E 011°09'1 1.4
2019-Feb-09 17:01N 58°56' E 011°10'4 8.8
2019-Feb-09 16:31N 58°58' E 011°02'714.9
2019-Feb-09 16:01N 59°01' E 010°50'815.0
2019-Feb-09 15:31N 58°59' E 010°36'714.9
2019-Feb-09 15:00N 59°01' E 010°21'612.8
2019-Feb-09 14:31N 59°06' E 010°14'2 3.6
2019-Feb-09 14:01N 59°08' E 010°14'0 0.4
2019-Feb-09 13:30N 59°07' E 010°14'611.9
2019-Feb-09 13:01N 59°02' E 010°16'714.3
2019-Feb-09 12:31N 58°60' E 010°30'714.9
2019-Feb-09 12:01N 59°01' E 010°44'714.2
2019-Feb-09 11:31N 59°00' E 010°57'714.6
2019-Feb-09 11:00N 58°56' E 011°09'1 1.1
2019-Feb-09 10:31N 58°56' E 011°10'0 0.1
2019-Feb-09 10:00N 58°56' E 011°10'713.1
2019-Feb-09 09:31N 58°59' E 010°59'815.6
2019-Feb-09 09:01N 59°01' E 010°45'816.0
2019-Feb-09 08:31N 58°59' E 010°30'715.0
2019-Feb-09 08:01N 59°02' E 010°16'611.7
2019-Feb-09 07:30N 59°07' E 010°14'0 0.2
2019-Feb-09 07:01N 59°08' E 010°14'1 2.8
2019-Feb-09 06:30N 59°06' E 010°14'0 0.0
2019-Feb-09 05:59N 59°06' E 010°14'0 0.0
2019-Feb-09 05:29N 59°06' E 010°14'0 0.0
2019-Feb-09 05:00N 59°06' E 010°14'0 0.0
2019-Feb-09 04:30N 59°06' E 010°14'0 0.0
2019-Feb-09 04:00N 59°06' E 010°14'0 0.0
2019-Feb-09 03:28N 59°06' E 010°14'0 0.0
2019-Feb-09 02:58N 59°06' E 010°14'0 0.0
2019-Feb-09 02:28N 59°06' E 010°14'0 0.0
2019-Feb-09 01:59N 59°06' E 010°14'0 0.0
2019-Feb-09 01:29N 59°06' E 010°14'0 0.0
2019-Feb-09 00:59N 59°06' E 010°14'0 0.0
2019-Feb-09 00:30N 59°06' E 010°14'0 0.0
2019-Feb-09 00:00N 59°06' E 010°14'0 0.0
2019-Feb-08 23:30N 59°06' E 010°14'0 0.0
2019-Feb-08 22:58N 59°06' E 010°14'0 0.0
2019-Feb-08 22:28N 59°06' E 010°14'0 0.0
2019-Feb-08 21:58N 59°06' E 010°14'0 0.0
2019-Feb-08 21:29N 59°06' E 010°14'0 0.0
2019-Feb-08 20:59N 59°06' E 010°14'0 0.4
2019-Feb-08 20:30N 59°06' E 010°14'1 2.4
2019-Feb-08 20:01N 59°08' E 010°14'510.9
2019-Feb-08 19:31N 59°02' E 010°15'815.2
2019-Feb-08 19:00N 58°60' E 010°30'815.7
2019-Feb-08 18:30N 59°02' E 010°44'815.5
2019-Feb-08 18:01N 58°60' E 010°59'713.6
2019-Feb-08 17:30N 58°56' E 011°10'0 0.2
2019-Feb-08 17:00N 58°56' E 011°10'5 9.2
2019-Feb-08 16:31N 58°58' E 011°02'815.3
2019-Feb-08 16:00N 59°01' E 010°49'815.5
2019-Feb-08 15:30N 59°00' E 010°34'815.0
2019-Feb-08 15:00N 59°01' E 010°19'612.9
2019-Feb-08 14:31N 59°07' E 010°14'1 1.8
2019-Feb-08 14:01N 59°08' E 010°14'0 0.4
2019-Feb-08 13:30N 59°07' E 010°14'611.8
2019-Feb-08 13:00N 59°02' E 010°16'714.8
2019-Feb-08 12:30N 59°00' E 010°30'714.6
2019-Feb-08 12:00N 59°02' E 010°44'714.3
2019-Feb-08 11:30N 58°60' E 010°58'714.1
2019-Feb-08 11:00N 58°56' E 011°09'0 0.9
2019-Feb-08 10:31N 58°56' E 011°10'0 0.5
2019-Feb-08 10:00N 58°56' E 011°10'713.2
2019-Feb-08 09:30N 58°60' E 010°59'714.9
2019-Feb-08 09:00N 59°02' E 010°45'815.2
2019-Feb-08 08:30N 59°00' E 010°30'715.0
2019-Feb-08 08:01N 59°02' E 010°16'611.9
2019-Feb-08 07:30N 59°07' E 010°14'0 0.3
2019-Feb-08 07:01N 59°08' E 010°14'1 2.9
2019-Feb-08 06:30N 59°06' E 010°14'0 0.0
2019-Feb-08 06:00N 59°06' E 010°14'0 0.0
2019-Feb-08 05:28N 59°06' E 010°14'0 0.0
2019-Feb-08 04:58N 59°06' E 010°14'0 0.0
2019-Feb-08 04:29N 59°06' E 010°14'0 0.0
2019-Feb-08 03:59N 59°06' E 010°14'0 0.0
2019-Feb-08 03:29N 59°06' E 010°14'0 0.0
2019-Feb-08 03:00N 59°06' E 010°14'0 0.0
2019-Feb-08 02:30N 59°06' E 010°14'0 0.0
2019-Feb-08 02:00N 59°06' E 010°14'0 0.0
2019-Feb-08 01:31N 59°06' E 010°14'0 0.0
2019-Feb-08 00:58N 59°06' E 010°14'0 0.0
2019-Feb-08 00:28N 59°06' E 010°14'0 0.0
2019-Feb-07 23:59N 59°06' E 010°14'0 0.0
2019-Feb-07 23:26N 59°06' E 010°14'0 0.0
2019-Feb-07 22:59N 59°06' E 010°14'0 0.0
2019-Feb-07 22:30N 59°06' E 010°14'0 0.0
2019-Feb-07 22:00N 59°06' E 010°14'0 0.0
2019-Feb-07 21:30N 59°06' E 010°14'0 0.0
2019-Feb-07 21:01N 59°06' E 010°14'0 0.2
2019-Feb-07 20:30N 59°06' E 010°14'1 2.6
2019-Feb-07 20:00N 59°08' E 010°14'4 8.5
2019-Feb-07 19:31N 59°03' E 010°15'714.1
2019-Feb-07 19:00N 59°01' E 010°28'815.5
2019-Feb-07 18:31N 59°02' E 010°43'815.0
2019-Feb-07 18:01N 59°00' E 010°57'714.7
2019-Feb-07 17:30N 58°56' E 011°09'1 1.7
2019-Feb-07 17:00N 58°56' E 011°10'4 8.9
2019-Feb-07 16:31N 58°58' E 011°02'714.6
2019-Feb-07 16:01N 59°01' E 010°50'714.8
2019-Feb-07 15:31N 59°01' E 010°36'714.6
2019-Feb-07 15:01N 59°01' E 010°21'612.6
2019-Feb-07 14:31N 59°06' E 010°14'2 3.4
2019-Feb-07 14:01N 59°08' E 010°14'0 0.8
2019-Feb-07 13:30N 59°07' E 010°14'611.5
2019-Feb-07 13:01N 59°02' E 010°17'714.6
2019-Feb-07 12:31N 59°01' E 010°31'714.5
2019-Feb-07 12:01N 59°02' E 010°44'714.2
2019-Feb-07 11:31N 58°60' E 010°58'714.1
2019-Feb-07 11:01N 58°56' E 011°09'1 1.2
2019-Feb-07 10:30N 58°56' E 011°10'0 0.4
2019-Feb-07 10:00N 58°56' E 011°10'613.0
2019-Feb-07 09:31N 58°59' E 010°59'714.5
2019-Feb-07 09:01N 59°02' E 010°46'714.7
2019-Feb-07 08:31N 59°00' E 010°32'714.6
2019-Feb-07 08:01N 59°01' E 010°18'612.4
2019-Feb-07 07:30N 59°07' E 010°14'0 0.7
2019-Feb-07 07:01N 59°08' E 010°14'1 2.8
2019-Feb-07 06:30N 59°06' E 010°14'0 0.0
2019-Feb-07 05:59N 59°06' E 010°14'0 0.0
2019-Feb-07 05:29N 59°06' E 010°14'0 0.0
2019-Feb-07 04:59N 59°06' E 010°14'0 0.0
2019-Feb-07 04:30N 59°06' E 010°14'0 0.0
2019-Feb-07 04:00N 59°06' E 010°14'0 0.0
2019-Feb-07 03:27N 59°06' E 010°14'0 0.0
2019-Feb-07 03:01N 59°06' E 010°14'0 0.0
2019-Feb-07 02:28N 59°06' E 010°14'0 0.0
2019-Feb-07 01:58N 59°06' E 010°14'0 0.0
2019-Feb-07 01:29N 59°06' E 010°14'0 0.0
2019-Feb-07 00:59N 59°06' E 010°14'0 0.0
2019-Feb-07 00:29N 59°06' E 010°14'0 0.0
2019-Feb-07 00:00N 59°06' E 010°14'0 0.0
2019-Feb-06 23:30N 59°06' E 010°14'0 0.0
2019-Feb-06 23:00N 59°06' E 010°14'0 0.0
2019-Feb-06 22:31N 59°06' E 010°14'0 0.0
2019-Feb-06 21:58N 59°06' E 010°14'0 0.0
2019-Feb-06 21:28N 59°06' E 010°14'0 0.0
2019-Feb-06 21:01N 59°06' E 010°14'1 2.4
2019-Feb-06 20:30N 59°07' E 010°14'0 0.2
2019-Feb-06 20:00N 59°08' E 010°14'612.1
2019-Feb-06 19:31N 59°02' E 010°16'815.8
2019-Feb-06 19:00N 59°00' E 010°31'714.5
2019-Feb-06 18:30N 59°02' E 010°45'714.4
2019-Feb-06 18:01N 58°60' E 010°59'713.4
2019-Feb-06 17:30N 58°56' E 011°09'0 0.7
2019-Feb-06 17:01N 58°56' E 011°10'5 9.1
2019-Feb-06 16:31N 58°58' E 011°02'714.6
2019-Feb-06 16:01N 59°01' E 010°50'714.8
2019-Feb-06 15:30N 59°01' E 010°35'815.1
2019-Feb-06 15:00N 59°01' E 010°21'612.5
2019-Feb-06 14:30N 59°06' E 010°14'1 2.8
2019-Feb-06 14:00N 59°08' E 010°14'0 0.0
2019-Feb-06 13:30N 59°08' E 010°14'611.5
2019-Feb-06 13:00N 59°02' E 010°16'714.6
2019-Feb-06 12:30N 59°01' E 010°30'714.4
2019-Feb-06 12:01N 59°02' E 010°44'714.5
2019-Feb-06 11:30N 59°00' E 010°57'714.4
2019-Feb-06 11:01N 58°56' E 011°08'1 1.7
2019-Feb-06 10:31N 58°56' E 011°10'0 0.0
2019-Feb-06 10:01N 58°56' E 011°10'510.8
2019-Feb-06 09:31N 58°59' E 011°01'815.4
2019-Feb-06 09:01N 59°02' E 010°47'816.0
2019-Feb-06 08:31N 58°60' E 010°32'815.7
2019-Feb-06 08:00N 59°01' E 010°17'612.4
2019-Feb-06 07:31N 59°07' E 010°14'0 0.6
2019-Feb-06 07:00N 59°08' E 010°14'1 2.9
2019-Feb-06 06:30N 59°06' E 010°14'0 0.0
2019-Feb-06 06:00N 59°06' E 010°14'0 0.0
2019-Feb-06 05:30N 59°06' E 010°14'0 0.0
2019-Feb-06 05:00N 59°06' E 010°14'0 0.0
2019-Feb-06 04:28N 59°06' E 010°14'  

Dump ship's entire track history